createdAt,value
2024-01-24T00:18:13.790Z,4.83
2024-01-24T00:38:14.500Z,5.12
2024-01-24T00:58:14.164Z,5.31
2024-01-24T01:58:35.230Z,5.83
2024-01-24T01:58:45.715Z,6.49
2024-01-24T01:58:45.718Z,6.2
2024-01-24T02:18:13.739Z,6.76
2024-01-24T02:38:13.655Z,7.06
2024-01-24T02:58:13.850Z,7.26
2024-01-24T03:18:14.970Z,7.44
2024-01-24T03:38:13.893Z,7.63
2024-01-24T03:58:13.857Z,7.96
2024-01-24T04:18:14.525Z,8.22
2024-01-24T04:38:13.993Z,8.48
2024-01-24T04:58:14.007Z,8.7
2024-01-24T05:18:14.023Z,8.84
2024-01-24T05:38:14.142Z,9.01
2024-01-24T05:58:14.149Z,8.89
2024-01-24T06:18:14.097Z,8.92
2024-01-24T06:38:14.243Z,8.92
2024-01-24T06:58:14.338Z,8.96
2024-01-24T07:18:14.336Z,9.05
2024-01-24T07:38:15.841Z,9.14
2024-01-24T07:58:14.457Z,9.39
2024-01-24T08:18:14.409Z,9.38
2024-01-24T08:38:14.438Z,9.7
2024-01-24T08:58:14.519Z,10.19
2024-01-24T09:18:15.205Z,10.48
2024-01-24T09:38:14.878Z,10.92
2024-01-24T09:58:17.014Z,10.08
2024-01-24T10:18:14.774Z,9.41
2024-01-24T10:38:14.676Z,9.93
2024-01-24T10:58:14.642Z,10.34
2024-01-24T11:18:14.655Z,11.1
2024-01-24T11:38:16.775Z,12.33
2024-01-24T11:58:14.918Z,13.8
2024-01-24T12:18:14.803Z,12.11
2024-01-24T12:38:14.455Z,12.4
2024-01-24T12:58:14.976Z,11.66
2024-01-24T13:18:15.000Z,11.03
2024-01-24T13:38:14.910Z,10.57
2024-01-24T13:58:15.103Z,10.82
2024-01-24T14:18:15.058Z,10.95
2024-01-24T14:38:15.162Z,10.47
2024-01-24T14:58:15.094Z,10.33
2024-01-24T15:18:15.160Z,10.19
2024-01-24T15:38:15.086Z,10.06
2024-01-24T15:58:15.151Z,9.92
2024-01-24T16:18:15.533Z,9.91
2024-01-24T16:38:15.277Z,9.84
2024-01-24T16:58:15.435Z,9.48
2024-01-24T17:18:15.447Z,9.46
2024-01-24T17:38:15.349Z,9.18
2024-01-24T17:58:15.587Z,9
2024-01-24T18:18:15.435Z,8.69
2024-01-24T18:38:15.691Z,8.43
2024-01-24T18:58:15.739Z,8.4
2024-01-24T19:18:17.517Z,8.6
2024-01-24T19:38:15.761Z,8.65
2024-01-24T19:58:15.618Z,8.67
2024-01-24T20:18:15.666Z,8.28
2024-01-24T20:38:15.786Z,8.28
2024-01-24T20:58:15.871Z,8.16
2024-01-24T21:18:15.877Z,7.92
2024-01-24T21:38:15.941Z,7.86
2024-01-24T21:58:24.258Z,7.84
2024-01-24T22:18:15.903Z,8
2024-01-24T22:38:17.440Z,7.98
2024-01-24T22:58:16.339Z,7.94
2024-01-24T23:18:16.081Z,7.88
2024-01-24T23:38:16.666Z,7.85
2024-01-24T23:58:16.185Z,7.53
